Latest Weather Observations for Mortlake

IDV60801

Issued at 11:12 am EDT Wednesday 16 January 2019 (issued every 10 minutes, with the page automatically refreshed every 10 minutes)

About weather observations | Map of weather stations | Latest weather observations for VIC | Other Formats
Station Details ID: 090176 Name: MORTLAKE RACECOURSE Lat: -38.07 Lon: 142.77 Height: 130.0 m
Data from the previous 72 hours. | See also: Recent months at Mortlake
Date/Time
EDT
Temp
°C
App
Temp
°C
Dew
Point
°C
Rel
Hum
%
Delta-T
°C
Wind Press
QNH
hPa
Press
MSL
hPa
Rain since
9am
mm
Dir  Spd
km/h
Gust
km/h
Spd
kts
Gust
kts
16/11:00am 25.6 25.5 13.8 48 7.0 SSE 7 15 4 8 1011.1 1010.8 0.0
16/10:30am 24.4 24.6 14.8 55 5.8 SSE 7 17 4 9 1011.1 1010.8 0.0
16/10:00am 22.8 23.3 15.1 62 4.6 SSW 6 13 3 7 1011.2 1010.9 0.0
16/09:30am 21.5 22.1 15.3 68 3.7 NE 6 9 3 5 1011.1 1010.8 0.0
16/09:00am 19.5 20.6 15.6 78 2.3 N 4 6 2 3 1011.5 1011.2 0.0
16/08:30am 18.0 18.8 16.3 90 1.0 N 7 13 4 7 1011.2 1010.9 0.0
16/08:00am 17.1 18.0 16.5 96 0.4 NNE 7 11 4 6 1011.0 1010.7 0.0
16/07:30am 16.8 18.0 16.8 100 0.0 E 6 7 3 4 1010.8 1010.5 0.0
16/07:00am 16.5 17.4 16.5 100 0.0 ESE 7 9 4 5 1010.6 1010.3 0.0
16/06:30am 16.3 17.3 16.3 100 0.0 SSE 6 7 3 4 1010.8 1010.5 0.0
16/06:00am 16.1 17.4 16.1 100 0.0 SSE 4 6 2 3 1010.7 1010.4 0.0
16/05:30am 14.7 15.8 14.7 100 0.0 SW 2 6 1 3 1010.5 1010.2 0.0
16/05:00am 13.2 14.1 13.0 99 0.1 CALM 0 0 0 0 1010.4 1010.1 0.0
16/04:30am 13.7 14.7 13.2 97 0.3 CALM 0 0 0 0 1010.4 1010.1 0.0
16/04:00am 14.5 15.8 14.0 97 0.3 CALM 0 0 0 0 1010.6 1010.3 0.0
16/03:30am 15.4 17.0 14.8 96 0.3 CALM 0 0 0 0 1010.7 1010.4 0.0
16/03:00am 16.6 17.5 16.0 96 0.4 SSW 6 11 3 6 1010.9 1010.6 0.0
16/02:30am 17.3 18.0 17.0 98 0.2 SSW 9 11 5 6 1011.0 1010.7 0.0
16/02:00am 16.8 16.7 16.0 95 0.5 SSW 11 17 6 9 1011.1 1010.8 0.0
16/01:30am 17.4 18.1 15.7 90 1.0 S 6 9 3 5 1011.4 1011.1 0.0
16/01:00am 18.3 18.9 15.9 86 1.4 SSW 7 13 4 7 1011.1 1010.8 0.0
16/12:30am 19.2 17.9 13.8 71 3.1 SW 13 17 7 9 1012.3 1012.0 0.0
16/12:00am 18.3 15.9 8.8 54 5.0 SW 11 13 6 7 1011.8 1011.5 0.0
 
Date/Time
EDT
Temp
°C
App
Temp
°C
Dew
Point
°C
Rel
Hum
%
Delta-T
°C
Wind Press
QNH
hPa
Press
MSL
hPa
Rain since
9am
mm
Dir  Spd
km/h
Gust
km/h
Spd
kts
Gust
kts
15/11:30pm 19.4 15.6 4.0 36 7.4 SW 13 15 7 8 1011.6 1011.3 0.0
15/11:00pm 20.6 16.5 2.4 30 8.5 SSW 13 15 7 8 1011.2 1010.9 0.0
15/10:30pm 22.5 18.2 0.9 24 10.0 SSW 13 19 7 10 1011.1 1010.8 0.0
15/10:00pm 24.1 19.9 1.7 23 10.6 SSW 13 15 7 8 1010.5 1010.2 0.0
15/09:30pm 26.1 21.5 1.4 20 11.8 SSW 15 20 8 11 1010.4 1010.1 0.0
15/09:00pm 27.8 24.0 6.0 25 11.5 SSW 15 19 8 10 1009.7 1009.4 0.0
15/08:30pm 30.4 27.8 4.2 19 13.6 S 7 9 4 5 1009.1 1008.8 0.0
15/08:00pm 33.1 29.9 3.0 15 15.5 SSW 9 15 5 8 1008.8 1008.4 0.0
15/07:30pm 33.7 31.2 3.5 15 15.7 SSW 6 7 3 4 1008.8 1008.4 0.0
15/07:00pm 34.1 30.9 2.8 14 16.2 SSW 9 11 5 6 1008.4 1008.0 0.0
15/06:30pm 36.9 32.7 1.6 11 18.2 SSW 13 19 7 10 1008.4 1008.0 0.0
15/06:00pm 36.4 31.2 -0.1 10 18.3 SSW 17 24 9 13 1008.5 1008.1 0.0
15/05:30pm 37.4 31.9 0.7 10 18.7 SSW 19 30 10 16 1008.4 1008.0 0.0
15/05:00pm 37.8 32.5 -0.5 9 19.2 SW 17 26 9 14 1008.7 1008.3 0.0
15/04:30pm 36.7 31.9 0.1 10 18.4 SSW 15 22 8 12 1008.9 1008.5 0.0
15/04:00pm 38.0 35.1 2.5 11 18.7 SW 7 15 4 8 1009.1 1008.8 0.0
15/03:30pm 36.8 31.7 2.8 12 17.8 SW 19 33 10 18 1009.6 1009.3 0.0
15/03:00pm 36.3 30.7 -3.2 8 18.8 WSW 17 26 9 14 1009.9 1009.6 0.0
15/02:30pm 35.2 30.0 -2.4 9 18.0 WSW 15 26 8 14 1009.8 1009.5 0.0
15/02:00pm 31.8 28.6 5.3 19 14.1 W 11 17 6 9 1010.4 1010.1 0.0
15/01:30pm 30.8 27.8 7.9 24 12.6 W 13 20 7 11 1010.4 1010.1 0.0
15/01:00pm 30.4 27.3 10.4 29 11.5 WSW 17 24 9 13 1010.2 1009.9 0.0
15/12:30pm 30.9 28.5 11.3 30 11.4 SW 15 20 8 11 1010.0 1009.7 0.0
15/12:00pm 29.6 26.0 9.7 29 11.2 SW 19 26 10 14 1010.0 1009.7 0.0
15/11:30am 29.1 25.3 9.8 30 10.9 SW 20 28 11 15 1010.1 1009.8 0.0
15/11:00am 32.5 29.2 8.0 22 13.7 WSW 15 22 8 12 1010.1 1009.8 0.0
15/10:30am 28.9 27.3 10.1 31 10.6 WSW 9 17 5 9 1010.2 1009.9 0.0
15/10:00am 28.2 26.7 10.4 33 10.1 W 9 15 5 8 1010.5 1010.2 0.0
15/09:30am 25.6 24.3 11.4 41 8.1 NNW 9 11 5 6 1010.2 1009.9 0.0
15/09:00am 23.6 23.8 12.9 51 6.2 N 4 7 2 4 1010.0 1009.7 0.0
15/08:30am 21.4 21.4 13.6 61 4.5 N 6 9 3 5 1010.0 1009.7 0.0
15/08:00am 17.5 19.0 17.5 100 0.0 N 6 9 3 5 1009.5 1009.2 0.0
15/07:30am 14.8 16.0 14.8 100 0.0 N 2 4 1 2 1009.2 1008.9 0.0
15/07:00am 13.4 13.3 13.4 100 0.0 NNE 6 9 3 5 1008.9 1008.5 0.0
15/06:30am 11.2 11.6 11.2 100 0.0 CALM 0 0 0 0 1009.1 1008.8 0.0
15/06:00am 10.8 10.7 10.8 100 0.0 SSW 2 4 1 2 1009.1 1008.8 0.0
15/05:30am 10.1 10.2 10.1 100 0.0 CALM 0 0 0 0 1009.1 1008.8 0.0
15/05:00am 10.3 10.4 10.3 100 0.0 CALM 0 0 0 0 1009.2 1008.9 0.0
15/04:30am 9.8 9.4 9.8 100 0.0 SSW 2 4 1 2 1009.1 1008.8 0.0
15/04:00am 10.1 9.0 10.1 100 0.0 SSW 6 6 3 3 1009.5 1009.2 0.0
15/03:30am 10.3 10.1 10.3 100 0.0 ENE 2 4 1 2 1009.7 1009.4 0.0
15/03:00am 9.4 9.3 9.4 100 0.0 CALM 0 0 0 0 1010.0 1009.7 0.0
15/02:30am 12.0 12.6 12.0 100 0.0 CALM 0 0 0 0 1010.6 1010.3 0.0
15/02:00am 12.0 11.3 12.0 100 0.0 SE 7 9 4 5 1011.1 1010.8 0.0
15/01:30am 12.3 12.6 12.3 100 0.0 SW 2 2 1 1 1011.2 1010.9 0.0
15/01:00am 11.4 11.4 11.2 99 0.1 SW 2 2 1 1 1011.2 1010.9 0.0
15/12:30am 11.1 10.2 10.5 96 0.3 SW 6 7 3 4 1011.5 1011.2 0.0
15/12:00am 12.6 12.4 11.8 95 0.4 SW 4 6 2 3 1011.8 1011.5 0.0
 
Date/Time
EDT
Temp
°C
App
Temp
°C
Dew
Point
°C
Rel
Hum
%
Delta-T
°C
Wind Press
QNH
hPa
Press
MSL
hPa
Rain since
9am
mm
Dir  Spd
km/h
Gust
km/h
Spd
kts
Gust
kts
14/11:30pm 13.1 12.4 12.0 93 0.6 SW 7 9 4 5 1011.9 1011.6 0.0
14/11:00pm 13.9 13.4 12.1 89 1.0 SW 6 6 3 3 1012.1 1011.8 0.0
14/10:30pm 15.3 16.1 12.4 83 1.6 CALM 0 4 0 2 1012.1 1011.8 0.0
14/10:00pm 17.7 17.4 13.2 75 2.5 SW 7 9 4 5 1011.8 1011.5 0.0
14/09:30pm 18.3 17.9 12.3 68 3.3 SW 6 9 3 5 1011.6 1011.3 0.0
14/09:00pm 19.7 18.3 12.2 62 4.2 SW 11 13 6 7 1011.5 1011.2 0.0
14/08:30pm 21.9 21.4 12.5 55 5.4 SSW 7 11 4 6 1011.4 1011.1 0.0
14/08:00pm 25.1 23.4 12.3 45 7.4 SSW 13 19 7 10 1011.4 1011.1 0.0
14/07:30pm 27.7 24.0 9.5 32 10.1 SSW 19 22 10 12 1011.2 1010.9 0.0
14/07:00pm 29.5 25.7 9.1 28 11.4 SSW 19 24 10 13 1011.0 1010.7 0.0
14/06:30pm 30.2 25.7 6.8 23 12.6 SSW 20 28 11 15 1010.7 1010.4 0.0
14/06:00pm 31.0 28.3 12.8 32 10.9 SW 19 28 10 15 1010.5 1010.2 0.0
14/05:30pm 31.3 29.3 14.9 37 10.1 SW 19 28 10 15 1010.6 1010.3 0.0
14/05:00pm 31.6 29.5 14.7 36 10.4 S 19 28 10 15 1010.6 1010.3 0.0
14/04:30pm 31.7 29.8 15.2 36 10.2 SSW 19 26 10 14 1011.0 1010.7 0.0
14/04:00pm 32.2 30.3 15.7 37 10.3 SSW 20 28 11 15 1011.1 1010.8 0.0
14/03:30pm 31.6 29.2 15.5 37 10.0 SSW 22 35 12 19 1011.0 1010.7 0.0
14/03:00pm 33.4 31.2 14.9 32 11.5 SSW 20 28 11 15 1010.8 1010.5 0.0
14/02:30pm 35.0 33.2 10.8 23 14.2 SW 11 24 6 13 1010.8 1010.5 0.0
14/02:00pm 33.0 31.8 11.5 27 12.7 SW 9 15 5 8 1011.0 1010.7 0.0
14/01:30pm 32.7 32.1 12.3 28 12.2 S 7 17 4 9 1011.1 1010.8 0.0
14/01:00pm 31.0 30.7 11.4 30 11.5 NNW 4 9 2 5 1011.3 1011.0 0.0
14/12:30pm 29.5 30.0 14.1 39 9.3 NNW 4 9 2 5 1011.6 1011.3 0.0
14/12:00pm 28.1 28.3 14.3 42 8.3 N 6 15 3 8 1011.7 1011.4 0.0
14/11:30am 25.7 25.8 15.4 53 6.3 NNE 9 17 5 9 1012.0 1011.7 0.0
14/11:00am 24.3 25.2 16.6 62 4.8 N 7 13 4 7 1012.6 1012.3 0.0
14/10:30am 22.2 22.0 15.8 67 3.9 NNE 11 15 6 8 1012.8 1012.5 0.0
14/10:00am 20.7 21.1 16.3 76 2.7 NE 9 17 5 9 1013.3 1013.0 0.0
14/09:30am 19.1 20.2 17.9 93 0.7 NE 9 17 5 9 1013.6 1013.3 0.0
14/09:00am 17.0 17.3 17.0 100 0.0 ENE 11 17 6 9 1013.7 1013.4 0.0
14/08:30am 16.4 16.8 16.4 100 0.0 ENE 9 13 5 7 1014.1 1013.7 0.0
14/08:00am 16.0 16.3 16.0 100 0.0 ENE 9 19 5 10 1013.9 1013.5 0.0
14/07:30am 13.9 14.0 13.9 100 0.0 E 6 7 3 4 1013.6 1013.3 0.0
14/07:00am 12.0 12.2 12.0 100 0.0 E 2 4 1 2 1013.6 1013.3 0.0
14/06:30am 10.6 10.1 10.6 100 0.0 E 4 6 2 3 1013.4 1013.1 0.0
14/06:00am 10.7 10.6 10.7 100 0.0 E 2 2 1 1 1013.3 1013.0 0.0
14/05:30am 9.9 9.2 9.9 100 0.0 E 4 6 2 3 1013.2 1012.9 0.0
14/05:00am 10.5 9.9 10.5 100 0.0 ESE 4 6 2 3 1013.1 1012.8 0.0
14/04:30am 11.5 10.6 11.5 100 0.0 SE 7 7 4 4 1013.0 1012.7 0.0
14/04:00am 11.9 11.7 11.9 100 0.0 ESE 4 6 2 3 1013.2 1012.9 0.0
14/03:30am 10.9 10.4 10.7 99 0.1 E 4 4 2 2 1013.2 1012.9 0.0
14/03:00am 10.7 10.7 9.9 95 0.4 CALM 0 0 0 0 1013.9 1013.5 0.0
14/02:30am 10.7 10.6 9.6 93 0.6 CALM 0 2 0 1 1014.2 1013.8 0.0
14/02:00am 13.0 12.5 11.9 93 0.6 SE 6 7 3 4 1014.6 1014.2 0.0
14/01:30am 14.0 13.7 12.7 92 0.7 SE 6 6 3 3 1014.9 1014.5 0.0
14/01:00am 14.7 14.5 12.9 89 1.0 SE 6 7 3 4 1015.3 1014.9 0.0
14/12:30am 15.3 15.4 12.8 85 1.4 SE 4 6 2 3 1015.5 1015.1 0.0
14/12:00am 16.2 15.9 12.7 80 1.9 ESE 6 9 3 5 1015.8 1015.5 0.0
 
Date/Time
EDT
Temp
°C
App
Temp
°C
Dew
Point
°C
Rel
Hum
%
Delta-T
°C
Wind Press
QNH
hPa
Press
MSL
hPa
Rain since
9am
mm
Dir  Spd
km/h
Gust
km/h
Spd
kts
Gust
kts
13/11:30pm 17.2 16.5 13.3 78 2.2 ESE 9 13 5 7 1015.9 1015.6 0.0
13/11:00pm 17.3 16.0 12.6 74 2.6 ESE 11 17 6 9 1016.5 1016.2 0.0
13/10:30pm 18.4 17.1 12.6 69 3.3 ESE 11 17 6 9 1016.5 1016.2 0.0
13/10:00pm 19.6 18.6 13.3 67 3.6 E 11 17 6 9 1016.6 1016.3 0.0
13/09:30pm 20.3 19.3 13.5 65 3.9 ESE 11 17 6 9 1016.6 1016.3 0.0
13/09:00pm 21.4 20.5 13.8 62 4.4 E 11 19 6 10 1016.7 1016.4 0.0
13/08:30pm 22.9 20.8 13.7 56 5.4 E 17 24 9 13 1016.6 1016.3 0.0
13/08:00pm 24.6 21.8 12.5 46 7.0 E 19 28 10 15 1016.4 1016.1 0.0
13/07:30pm 26.0 22.4 10.6 38 8.7 E 20 33 11 18 1016.1 1015.8 0.0
13/07:00pm 27.1 23.0 8.5 31 10.2 E 20 30 11 16 1016.1 1015.8 0.0
13/06:30pm 28.3 22.9 4.6 22 12.2 E 22 28 12 15 1016.2 1015.9 0.0
13/06:00pm 29.5 24.6 4.9 21 12.8 E 20 32 11 17 1016.2 1015.9 0.0
13/05:30pm 29.4 27.0 11.5 33 10.4 SSE 15 30 8 16 1016.2 1015.9 0.0
13/05:00pm 28.9 25.7 10.1 31 10.6 SSE 17 28 9 15 1016.6 1016.3 0.0
13/04:30pm 28.5 25.4 10.2 32 10.4 SSE 17 28 9 15 1017.0 1016.7 0.0
13/04:00pm 29.5 26.1 10.6 31 10.8 SE 19 28 10 15 1017.3 1017.0 0.0
13/03:30pm 28.7 25.9 9.9 31 10.6 SSE 15 32 8 17 1017.6 1017.3 0.0
13/03:00pm 28.5 26.1 10.2 32 10.3 SSE 13 28 7 15 1017.9 1017.6 0.0
13/02:30pm 28.8 25.2 6.8 25 11.8 SSE 15 26 8 14 1018.4 1018.1 0.0
13/02:00pm 27.4 23.8 6.8 27 10.9 SSE 15 26 8 14 1018.8 1018.5 0.0
13/01:30pm 26.4 22.7 6.4 28 10.5 SSE 15 26 8 14 1019.2 1018.9 0.0
13/01:00pm 26.2 22.7 7.3 30 10.0 SSE 15 24 8 13 1019.4 1019.1 0.0
13/12:30pm 24.9 21.9 7.5 33 9.2 SE 13 22 7 12 1019.9 1019.6 0.0
13/12:00pm 23.7 20.6 7.3 35 8.6 SE 13 24 7 13 1020.2 1019.9 0.0
13/11:30am 23.3 20.0 8.2 38 8.0 SE 15 26 8 14 1020.6 1020.3 0.0

Other Formats:

Comma delimited format used in spreadsheet applications
http://www.bom.gov.au/fwo/IDV60801/IDV60801.94840.axf

JavaScript Object Notation format (JSON) in row-major order
http://www.bom.gov.au/fwo/IDV60801/IDV60801.94840.json